Terminal Aerodrome Forecast
Issued by NWS Cheyenne, WY

Home | Current Version | Previous Version | Text Only | Print | Product List | Glossary On
Versions: 1 2 3 4 5 6 7 8 9 10 11 12 13 14 15 16 17 18
000
FTUS45 KCYS 252337
TAFCYS
TAF
KCYS 252337Z 2600/2624 26010KT P6SM VCSH BKN090
     FM260300 27007KT P6SM SCT150
     FM261800 05008KT P6SM -SHRA VCTS SCT050 OVC100CB=

USA.gov is the U.S. government's official web portal to all federal, state and local government web resources and services.